This is the latest recevied weather packets stored in our database for station/object M0TUM-1. If no packets are shown the sender has not sent any weather packets the latest 10 day(s).
| Time | Temp. | Humidity | Pressure | Rain* | Wind** | Luminosity | Snow |
|---|---|---|---|---|---|---|---|
| 1777625533 | 18.89° C | 35% | 1022.1 hPa | 0 mm | - | 550 W/m² | - |
| 1777625229 | 18.89° C | 36% | 1021.8 hPa | 0 mm | - | 558 W/m² | - |
| 1777624926 | 18.89° C | 36% | 1022.1 hPa | 0 mm | - | 563 W/m² | - |
| 1777624621 | 18.33° C | 36% | 1022.1 hPa | 0 mm | - | 557 W/m² | - |
| 1777624316 | 18.33° C | 36% | 1022.3 hPa | 0 mm | - | 540 W/m² | - |
| 1777624014 | 17.78° C | 36% | 1022.2 hPa | 0 mm | - | 525 W/m² | - |
| 1777623712 | 17.78° C | 37% | 1022 hPa | 0 mm | - | 457 W/m² | - |
| 1777623408 | 18.33° C | 36% | 1021.8 hPa | 0 mm | - | 369 W/m² | - |
| 1777623105 | 17.22° C | 37% | 1022.1 hPa | 0 mm | - | 420 W/m² | - |
| 1777622802 | 17.22° C | 38% | 1022 hPa | 0 mm | - | 68 W/m² | - |
| 1777622499 | 17.22° C | 38% | 1022.2 hPa | 0 mm | - | 383 W/m² | - |
| 1777622195 | 17.22° C | 38% | 1022.1 hPa | 0 mm | - | 370 W/m² | - |
| 1777621891 | 17.22° C | 40% | 1022.3 hPa | 0 mm | - | 373 W/m² | - |
| 1777621587 | 16.67° C | 42% | 1022.1 hPa | 0 mm | - | 157 W/m² | - |
| 1777621284 | 16.67° C | 43% | 1022.2 hPa | 0 mm | - | 339 W/m² | - |
| 1777620981 | 16.11° C | 44% | 1022.1 hPa | 0 mm | - | 56 W/m² | - |
| 1777620676 | 16.11° C | 43% | 1022.4 hPa | 0 mm | - | 322 W/m² | - |
| 1777620372 | 16.11° C | 44% | 1022.3 hPa | 0 mm | - | 300 W/m² | - |
| 1777620070 | 15.56° C | 45% | 1022.3 hPa | 0 mm | - | 289 W/m² | - |
| 1777619766 | 15.56° C | 46% | 1022.3 hPa | 0 mm | - | 278 W/m² | - |
| 1777619461 | 15° C | 46% | 1022.3 hPa | 0 mm | - | 270 W/m² | - |
| 1777619156 | 15.56° C | 48% | 1022.2 hPa | 0 mm | - | 251 W/m² | - |
| 1777618851 | 15° C | 48% | 1022.2 hPa | 0 mm | - | 235 W/m² | - |
| 1777618550 | 14.44° C | 49% | 1022.2 hPa | 0 mm | - | 51 W/m² | - |
| 1777618247 | 14.44° C | 51% | 1022.2 hPa | 0 mm | - | 55 W/m² | - |
* Rain latest hour (hover to see other rain measurements)
** Current wind speed in m/s (hover to see current wind gust speed)